createdAt,value
2022-12-24T00:01:33.087Z,100489.53
2022-12-24T00:04:00.989Z,100480.78
2022-12-24T00:06:28.473Z,100492.28
2022-12-24T00:08:55.896Z,100496.75
2022-12-24T00:11:23.430Z,100501.22
2022-12-24T00:13:50.876Z,100511.78
2022-12-24T00:16:18.421Z,100509.25
2022-12-24T00:18:47.112Z,100508.44
2022-12-24T00:21:15.950Z,100513.72
2022-12-24T00:23:44.098Z,100517.28
2022-12-24T00:26:13.467Z,100523.44
2022-12-24T00:28:41.638Z,100527.88
2022-12-24T00:31:17.003Z,100526.97
2022-12-24T00:33:48.479Z,100532.22
2022-12-24T00:36:17.430Z,100534.91
2022-12-24T00:38:45.769Z,100533.94
2022-12-24T00:41:24.994Z,100534.00
2022-12-24T00:44:00.181Z,100544.53
2022-12-24T00:46:31.410Z,100546.25
2022-12-24T00:48:59.781Z,100549.81
2022-12-24T00:51:28.135Z,100559.41
2022-12-24T00:53:55.743Z,100562.91
2022-12-24T00:56:23.556Z,100569.03
2022-12-24T00:58:51.663Z,100567.25
2022-12-24T01:01:20.259Z,100569.88
2022-12-24T01:03:48.618Z,100565.47
2022-12-24T01:06:20.144Z,100569.88
2022-12-24T01:08:51.564Z,100579.53
2022-12-24T01:11:19.564Z,100581.34
2022-12-24T01:13:47.002Z,100589.22
2022-12-24T01:16:21.436Z,100589.22
2022-12-24T01:18:49.206Z,100590.94
2022-12-24T01:21:17.055Z,100590.09
2022-12-24T01:23:44.768Z,100588.31
2022-12-24T01:26:12.585Z,100597.97
2022-12-24T01:28:40.968Z,100604.06
2022-12-24T01:31:18.319Z,100598.78
2022-12-24T01:33:49.828Z,100605.81
2022-12-24T01:36:17.539Z,100617.19
2022-12-24T01:38:45.087Z,100604.84
2022-12-24T01:41:35.619Z,100607.44
2022-12-24T01:44:43.918Z,100617.09
2022-12-24T01:47:27.591Z,100623.28
2022-12-24T01:50:03.531Z,100624.16
2022-12-24T01:52:36.839Z,100625.03
2022-12-24T01:55:16.078Z,100633.78
2022-12-24T01:57:51.827Z,100632.91
2022-12-24T02:00:19.599Z,100625.97
2022-12-24T02:02:52.332Z,100639.16
2022-12-24T02:05:41.166Z,100644.44
2022-12-24T02:08:09.091Z,100645.44
2022-12-24T02:10:36.677Z,100652.50
2022-12-24T02:13:06.689Z,100656.97
2022-12-24T02:16:08.578Z,100665.00
2022-12-24T02:18:55.960Z,100666.09
2022-12-24T02:21:50.304Z,100667.94
2022-12-24T02:24:37.491Z,100678.50
2022-12-24T02:27:39.356Z,100673.25
2022-12-24T02:30:16.746Z,100668.97
2022-12-24T02:32:59.593Z,100668.00
2022-12-24T02:35:41.066Z,100680.31
2022-12-24T02:38:25.069Z,100674.22
2022-12-24T02:41:02.327Z,100668.97
2022-12-24T02:43:37.986Z,100664.56
2022-12-24T02:46:16.129Z,100675.00
2022-12-24T02:48:48.539Z,100675.84
2022-12-24T02:51:16.986Z,100672.34
2022-12-24T02:53:44.440Z,100673.19
2022-12-24T02:56:38.391Z,100676.53
2022-12-24T03:00:00.313Z,100676.53
2022-12-24T03:02:56.007Z,100680.94
2022-12-24T03:06:07.727Z,100675.63
2022-12-24T03:08:55.076Z,100679.97
2022-12-24T03:11:22.696Z,100672.91
2022-12-24T03:13:54.323Z,100669.38
2022-12-24T03:16:24.835Z,100664.19
2022-12-24T03:18:56.743Z,100673.84
2022-12-24T03:21:33.044Z,100670.34
2022-12-24T03:24:00.964Z,100680.09
2022-12-24T03:26:32.776Z,100673.09
2022-12-24T03:29:04.013Z,100678.44
2022-12-24T03:31:51.538Z,100687.28
2022-12-24T03:34:19.875Z,100683.88
2022-12-24T03:36:48.394Z,100690.00
2022-12-24T03:39:16.189Z,100694.41
2022-12-24T03:41:43.643Z,100694.38
2022-12-24T03:44:11.112Z,100698.69
2022-12-24T03:46:38.583Z,100706.50
2022-12-24T03:49:06.234Z,100694.19
2022-12-24T03:51:33.733Z,100705.53
2022-12-24T03:54:01.402Z,100695.00
2022-12-24T03:56:29.229Z,100704.56
2022-12-24T03:58:56.694Z,100715.06
2022-12-24T04:01:24.280Z,100712.31
2022-12-24T04:03:51.878Z,100715.84
2022-12-24T04:06:19.346Z,100721.03
2022-12-24T04:08:46.794Z,100724.53
2022-12-24T04:11:16.921Z,100710.50
2022-12-24T04:13:44.939Z,100717.47
2022-12-24T04:16:16.280Z,100725.28
2022-12-24T04:18:44.389Z,100720.91
2022-12-24T04:21:12.280Z,100723.47
2022-12-24T04:23:42.073Z,100726.94
2022-12-24T04:26:12.451Z,100738.31
2022-12-24T04:28:42.416Z,100735.63
2022-12-24T04:31:14.833Z,100730.31
2022-12-24T04:33:42.925Z,100732.94
2022-12-24T04:36:15.167Z,100728.50
2022-12-24T04:38:43.950Z,100730.22
2022-12-24T04:41:23.842Z,100737.16
2022-12-24T04:43:54.594Z,100736.28
2022-12-24T04:46:32.580Z,100735.41
2022-12-24T04:49:00.038Z,100738.00
2022-12-24T04:51:28.788Z,100742.28
2022-12-24T04:53:57.604Z,100743.13
2022-12-24T04:56:30.151Z,100747.41
2022-12-24T04:59:00.074Z,100749.19
2022-12-24T05:01:33.169Z,100754.47
2022-12-24T05:04:01.670Z,100756.25
2022-12-24T05:06:32.866Z,100756.25
2022-12-24T05:09:00.579Z,100757.97
2022-12-24T05:11:29.075Z,100752.78
2022-12-24T05:13:56.689Z,100749.25
2022-12-24T05:16:24.426Z,100748.41
2022-12-24T05:18:53.463Z,100751.06
2022-12-24T05:21:26.668Z,100756.38
2022-12-24T05:24:12.712Z,100761.69
2022-12-24T05:26:51.666Z,100755.59
2022-12-24T05:29:19.750Z,100763.56
2022-12-24T05:31:47.326Z,100768.81
2022-12-24T05:34:16.819Z,100756.59
2022-12-24T05:36:45.592Z,100764.50
2022-12-24T05:39:17.869Z,100768.81
2022-12-24T05:41:46.430Z,100760.09
2022-12-24T05:44:16.168Z,100758.28
2022-12-24T05:46:44.710Z,100757.44
2022-12-24T05:49:12.650Z,100767.94
2022-12-24T05:51:40.414Z,100765.34
2022-12-24T05:54:08.033Z,100775.88
2022-12-24T05:56:35.537Z,100771.53
2022-12-24T05:59:03.044Z,100773.34
2022-12-24T06:01:30.685Z,100775.13
2022-12-24T06:03:58.526Z,100790.91
2022-12-24T06:06:28.048Z,100791.78
2022-12-24T06:08:56.192Z,100797.13
2022-12-24T06:11:28.220Z,100791.78
2022-12-24T06:13:56.351Z,100795.34
2022-12-24T06:16:25.657Z,100802.31
2022-12-24T06:18:54.153Z,100796.19
2022-12-24T06:21:21.920Z,100811.97
2022-12-24T06:23:49.327Z,100806.72
2022-12-24T06:26:21.280Z,100808.38
2022-12-24T06:28:50.654Z,100815.41
2022-12-24T06:31:21.845Z,100824.16
2022-12-24T06:33:50.175Z,100828.59
2022-12-24T06:36:22.747Z,100818.97
2022-12-24T06:38:51.841Z,100814.63
2022-12-24T06:41:21.126Z,100816.44
2022-12-24T06:43:52.402Z,100819.97
2022-12-24T06:46:21.305Z,100834.88
2022-12-24T06:48:49.180Z,100839.25
2022-12-24T06:51:19.990Z,100837.44
2022-12-24T06:53:50.753Z,100838.38
2022-12-24T06:56:20.603Z,100844.44
2022-12-24T06:58:48.253Z,100846.22
2022-12-24T07:01:18.015Z,100836.53
2022-12-24T07:03:46.433Z,100840.03
2022-12-24T07:06:34.236Z,100828.59
2022-12-24T07:09:01.711Z,100838.25
2022-12-24T07:11:29.266Z,100847.03
2022-12-24T07:13:56.704Z,100851.38
2022-12-24T07:16:24.369Z,100846.97
2022-12-24T07:18:51.964Z,100854.81
2022-12-24T07:21:19.458Z,100858.41
2022-12-24T07:23:46.950Z,100845.31
2022-12-24T07:26:14.444Z,100855.06
2022-12-24T07:28:41.884Z,100860.34
2022-12-24T07:31:09.465Z,100867.41
2022-12-24T07:33:36.972Z,100863.94
2022-12-24T07:36:08.351Z,100863.97
2022-12-24T07:38:37.818Z,100873.63
2022-12-24T07:41:05.469Z,100885.03
2022-12-24T07:43:34.100Z,100894.72
2022-12-24T07:46:02.319Z,100901.78
2022-12-24T07:48:31.747Z,100899.22
2022-12-24T07:50:59.915Z,100910.63
2022-12-24T07:53:29.793Z,100908.06
2022-12-24T07:55:58.374Z,100926.38
2022-12-24T07:58:26.277Z,100906.28
2022-12-24T08:00:59.832Z,100922.03
2022-12-24T08:03:28.116Z,100931.69
2022-12-24T08:05:55.770Z,100943.09
2022-12-24T08:08:23.475Z,100944.88
2022-12-24T08:10:51.445Z,100959.81
2022-12-24T08:13:18.946Z,100964.19
2022-12-24T08:15:46.507Z,100964.19
2022-12-24T08:18:14.014Z,100971.16
2022-12-24T08:20:42.074Z,100969.44
2022-12-24T08:23:09.820Z,100977.25
2022-12-24T08:25:37.933Z,100980.75
2022-12-24T08:28:06.281Z,100988.59
2022-12-24T08:30:34.086Z,100992.13
2022-12-24T08:33:02.172Z,100983.34
2022-12-24T08:35:30.043Z,100985.06
2022-12-24T08:37:58.036Z,100993.78
2022-12-24T08:40:25.909Z,100990.31
2022-12-24T08:42:53.569Z,100992.00
2022-12-24T08:45:21.386Z,100990.25
2022-12-24T08:47:48.980Z,100984.09
2022-12-24T08:50:16.506Z,100990.25
2022-12-24T08:52:44.005Z,100992.00
2022-12-24T08:55:11.529Z,100999.78
2022-12-24T08:57:38.980Z,101001.56
2022-12-24T09:00:09.515Z,101008.56
2022-12-24T09:02:37.111Z,101002.41
2022-12-24T09:05:05.461Z,101008.56
2022-12-24T09:07:32.954Z,101010.25
2022-12-24T09:10:00.407Z,101013.72
2022-12-24T09:12:28.001Z,101018.03
2022-12-24T09:14:59.704Z,101027.63
2022-12-24T09:17:30.800Z,101038.91
2022-12-24T09:19:58.321Z,101031.88
2022-12-24T09:22:25.787Z,101048.44
2022-12-24T09:24:56.423Z,101038.72
2022-12-24T09:27:24.011Z,101047.34
2022-12-24T09:29:51.527Z,101048.97
2022-12-24T09:32:19.059Z,101054.13
2022-12-24T09:34:46.704Z,101061.03
2022-12-24T09:37:14.552Z,101064.47
2022-12-24T09:39:42.045Z,101061.81
2022-12-24T09:42:51.554Z,101064.47
2022-12-24T09:45:35.237Z,101070.59
2022-12-24T09:48:13.693Z,101074.97
2022-12-24T09:51:28.528Z,101078.44
2022-12-24T09:54:36.649Z,101082.78
2022-12-24T09:57:32.595Z,101080.13
2022-12-24T10:00:00.167Z,101079.16
2022-12-24T10:02:27.901Z,101082.47
2022-12-24T10:04:55.851Z,101082.34
2022-12-24T10:07:50.965Z,101083.06
2022-12-24T10:10:31.436Z,101103.13
2022-12-24T10:13:24.613Z,101103.94
2022-12-24T10:16:14.321Z,101106.44
2022-12-24T10:19:19.316Z,101109.00
2022-12-24T10:21:59.448Z,101115.94
2022-12-24T10:24:55.052Z,101118.44
2022-12-24T10:27:30.652Z,101119.22
2022-12-24T10:30:16.926Z,101113.81
2022-12-24T10:32:48.188Z,101097.94
2022-12-24T10:35:15.579Z,101102.22
2022-12-24T10:37:47.311Z,101104.78
2022-12-24T10:40:30.057Z,101099.44
2022-12-24T10:42:58.230Z,101101.19
2022-12-24T10:45:37.298Z,101101.16
2022-12-24T10:48:18.845Z,101096.72
2022-12-24T10:50:58.462Z,101095.81
2022-12-24T10:53:48.711Z,101096.78
2022-12-24T10:56:19.521Z,101105.66
2022-12-24T10:58:54.886Z,101102.19
2022-12-24T11:01:45.860Z,101108.38
2022-12-24T11:04:18.791Z,101117.94
2022-12-24T11:07:03.184Z,101105.53
2022-12-24T11:09:43.476Z,101107.25
2022-12-24T11:12:23.719Z,101105.34
2022-12-24T11:15:16.106Z,101111.38
2022-12-24T11:17:54.928Z,101106.91
2022-12-24T11:20:29.944Z,101115.63
2022-12-24T11:22:58.594Z,101116.41
2022-12-24T11:25:32.416Z,101115.34
2022-12-24T11:28:31.793Z,101117.03
2022-12-24T11:30:59.230Z,101110.94
2022-12-24T11:33:27.466Z,101110.91
2022-12-24T11:36:02.797Z,101122.22
2022-12-24T11:38:34.014Z,101116.06
2022-12-24T11:41:11.553Z,101122.97
2022-12-24T11:43:46.347Z,101118.50
2022-12-24T11:46:44.701Z,101119.34
2022-12-24T11:49:12.108Z,101117.56
2022-12-24T11:52:02.521Z,101136.81
2022-12-24T11:54:39.190Z,101136.81
2022-12-24T11:57:13.626Z,101132.50
2022-12-24T11:59:46.980Z,101136.91
2022-12-24T12:02:39.050Z,101138.72
2022-12-24T12:05:27.703Z,101137.06
2022-12-24T12:08:10.858Z,101129.22
2022-12-24T12:10:43.704Z,101136.31
2022-12-24T12:13:20.809Z,101132.94
2022-12-24T12:16:17.184Z,101140.84
2022-12-24T12:18:56.156Z,101137.38
2022-12-24T12:21:35.560Z,101150.47
2022-12-24T12:24:20.006Z,101142.56
2022-12-24T12:26:57.410Z,101141.75
2022-12-24T12:29:40.037Z,101146.13
2022-12-24T12:32:22.795Z,101150.53
2022-12-24T12:35:23.450Z,101154.03
2022-12-24T12:38:19.263Z,101159.25
2022-12-24T12:41:23.826Z,101156.50
2022-12-24T12:44:30.911Z,101159.84
2022-12-24T12:47:27.188Z,101159.69
2022-12-24T12:50:13.672Z,101166.59
2022-12-24T12:53:10.170Z,101172.78
2022-12-24T12:55:59.397Z,101164.78
2022-12-24T12:58:44.448Z,101172.66
2022-12-24T13:01:30.439Z,101176.22
2022-12-24T13:04:56.141Z,101185.88
2022-12-24T13:08:00.841Z,101176.38
2022-12-24T13:10:48.491Z,101176.53
2022-12-24T13:13:50.576Z,101183.69
2022-12-24T13:16:38.813Z,101189.25
2022-12-24T13:19:37.696Z,101199.81
2022-12-24T13:22:15.964Z,101196.34
2022-12-24T13:24:54.200Z,101208.50
2022-12-24T13:27:27.496Z,101202.31
2022-12-24T13:30:20.922Z,101208.38
2022-12-24T13:32:53.673Z,101206.59
2022-12-24T13:35:21.046Z,101205.72
2022-12-24T13:37:49.359Z,101208.34
2022-12-24T13:40:27.951Z,101211.91
2022-12-24T13:43:01.322Z,101212.84
2022-12-24T13:45:28.781Z,101212.00
2022-12-24T13:48:13.766Z,101208.50
2022-12-24T13:50:50.819Z,101215.44
2022-12-24T13:53:39.592Z,101211.91
2022-12-24T13:56:23.573Z,101213.63
2022-12-24T13:59:09.053Z,101220.59
2022-12-24T14:01:41.468Z,101217.91
2022-12-24T14:04:26.828Z,101220.53
2022-12-24T14:06:59.586Z,101226.69
2022-12-24T14:09:30.539Z,101225.00
2022-12-24T14:12:04.067Z,101228.59
2022-12-24T14:14:38.594Z,101230.41
2022-12-24T14:17:25.536Z,101240.97
2022-12-24T14:20:00.546Z,101241.06
2022-12-24T14:22:36.075Z,101249.00
2022-12-24T14:25:22.879Z,101248.19
2022-12-24T14:28:19.070Z,101250.88
2022-12-24T14:31:04.253Z,101252.72
2022-12-24T14:33:35.482Z,101257.22
2022-12-24T14:36:03.585Z,101259.94
2022-12-24T14:38:32.272Z,101250.38
2022-12-24T14:41:25.875Z,101252.22
2022-12-24T14:44:23.459Z,101251.50
2022-12-24T14:46:58.847Z,101250.78
2022-12-24T14:50:23.103Z,101261.38
2022-12-24T14:53:08.263Z,101267.72
2022-12-24T14:55:45.859Z,101267.00
2022-12-24T14:58:31.927Z,101271.47
2022-12-24T15:01:17.997Z,101268.13
2022-12-24T15:03:45.677Z,101281.41
2022-12-24T15:06:14.774Z,101285.00
2022-12-24T15:08:50.042Z,101280.69
2022-12-24T15:11:24.382Z,101284.28
2022-12-24T15:13:57.404Z,101294.00
2022-12-24T15:16:33.775Z,101299.34
2022-12-24T15:19:06.873Z,101296.84
2022-12-24T15:21:42.451Z,101296.06
2022-12-24T15:24:35.205Z,101290.91
2022-12-24T15:27:25.565Z,101298.03
2022-12-24T15:29:57.583Z,101303.41
2022-12-24T15:32:25.318Z,101307.00
2022-12-24T15:34:55.514Z,101305.34
2022-12-24T15:37:39.158Z,101320.34
2022-12-24T15:40:19.572Z,101316.97
2022-12-24T15:42:47.515Z,101323.16
2022-12-24T15:45:27.822Z,101318.88
2022-12-24T15:48:26.295Z,101322.53
2022-12-24T15:51:04.794Z,101319.16
2022-12-24T15:53:43.911Z,101324.50
2022-12-24T15:56:27.270Z,101320.22
2022-12-24T15:59:19.962Z,101313.31
2022-12-24T16:01:48.968Z,101327.41
2022-12-24T16:04:29.986Z,101334.41
2022-12-24T16:07:02.000Z,101326.63
2022-12-24T16:09:36.415Z,101327.56
2022-12-24T16:12:04.455Z,101334.59
2022-12-24T16:14:33.636Z,101326.72
2022-12-24T16:17:01.159Z,101335.53
2022-12-24T16:19:37.903Z,101337.28
2022-12-24T16:22:26.209Z,101337.31
2022-12-24T16:24:55.604Z,101336.47
2022-12-24T16:27:23.417Z,101326.88
2022-12-24T16:29:50.869Z,101339.16
2022-12-24T16:32:39.428Z,101338.25
2022-12-24T16:35:22.347Z,101339.19
2022-12-24T16:37:49.785Z,101333.97
2022-12-24T16:40:21.960Z,101340.16
2022-12-24T16:43:11.343Z,101354.19
2022-12-24T16:45:38.866Z,101354.22
2022-12-24T16:48:08.381Z,101359.47
2022-12-24T16:50:36.223Z,101356.00
2022-12-24T16:53:03.719Z,101347.31
2022-12-24T16:55:31.195Z,101347.34
2022-12-24T16:57:58.709Z,101349.16
2022-12-24T17:00:26.330Z,101350.03
2022-12-24T17:02:53.999Z,101352.72
2022-12-24T17:05:23.818Z,101358.88
2022-12-24T17:07:51.565Z,101349.25
2022-12-24T17:10:19.099Z,101344.91
2022-12-24T17:12:46.545Z,101340.59
2022-12-24T17:15:14.056Z,101340.56
2022-12-24T17:17:41.528Z,101341.47
2022-12-24T17:20:10.532Z,101340.63
2022-12-24T17:22:39.359Z,101342.41
2022-12-24T17:25:09.174Z,101342.41
2022-12-24T17:27:36.594Z,101355.50
2022-12-24T17:30:05.153Z,101357.28
2022-12-24T17:32:33.205Z,101346.78
2022-12-24T17:35:02.268Z,101352.09
2022-12-24T17:37:30.026Z,101355.56
2022-12-24T17:39:57.546Z,101358.19
2022-12-24T17:42:25.013Z,101363.44
2022-12-24T17:44:52.519Z,101370.44
2022-12-24T17:47:20.007Z,101361.72
2022-12-24T17:49:47.515Z,101361.72
2022-12-24T17:52:15.157Z,101366.09
2022-12-24T17:54:42.623Z,101353.88
2022-12-24T17:57:10.080Z,101356.47
2022-12-24T17:59:37.608Z,101364.34
2022-12-24T18:02:05.365Z,101359.09
2022-12-24T18:04:32.977Z,101364.34
2022-12-24T18:07:02.704Z,101358.25
2022-12-24T18:09:31.069Z,101359.16
2022-12-24T18:11:58.572Z,101361.78
2022-12-24T18:14:26.532Z,101361.78
2022-12-24T18:16:54.073Z,101356.53
2022-12-24T18:19:21.644Z,101363.53
2022-12-24T18:21:49.082Z,101367.03
2022-12-24T18:24:16.578Z,101359.22
2022-12-24T18:26:45.687Z,101367.06
2022-12-24T18:29:13.399Z,101360.97
2022-12-24T18:31:41.523Z,101361.00
2022-12-24T18:34:17.165Z,101357.50
2022-12-24T18:36:47.177Z,101356.66
2022-12-24T18:39:19.063Z,101348.00
2022-12-24T18:41:46.514Z,101357.63
2022-12-24T18:44:16.057Z,101355.00
2022-12-24T18:46:45.667Z,101355.00
2022-12-24T18:49:13.141Z,101352.38
2022-12-24T18:51:41.957Z,101341.91
2022-12-24T18:54:09.438Z,101346.28
2022-12-24T18:56:36.956Z,101346.28
2022-12-24T18:59:04.487Z,101346.28
2022-12-24T19:01:35.017Z,101348.94
2022-12-24T19:04:03.122Z,101347.25
2022-12-24T19:06:31.272Z,101342.88
2022-12-24T19:09:00.626Z,101351.63
2022-12-24T19:11:33.635Z,101357.75
2022-12-24T19:14:04.172Z,101355.16
2022-12-24T19:16:36.850Z,101358.69
2022-12-24T19:19:08.952Z,101358.69
2022-12-24T19:21:36.698Z,101363.06
2022-12-24T19:24:07.375Z,101361.34
2022-12-24T19:26:34.780Z,101359.63
2022-12-24T19:29:02.294Z,101354.38
2022-12-24T19:31:29.767Z,101364.88
2022-12-24T19:33:57.605Z,101363.97
2022-12-24T19:36:29.181Z,101367.47
2022-12-24T19:38:58.562Z,101365.72
2022-12-24T19:41:29.409Z,101358.72
2022-12-24T19:44:01.298Z,101362.25
2022-12-24T19:46:33.313Z,101363.97
2022-12-24T19:49:08.172Z,101355.25
2022-12-24T19:51:36.171Z,101358.78
2022-12-24T19:54:06.114Z,101352.69
2022-12-24T19:56:33.710Z,101351.78
2022-12-24T19:59:02.905Z,101355.28
2022-12-24T20:01:34.724Z,101351.78
2022-12-24T20:04:03.635Z,101361.41
2022-12-24T20:06:35.251Z,101372.72
2022-12-24T20:09:09.596Z,101381.44
2022-12-24T20:11:37.127Z,101373.56
2022-12-24T20:14:06.672Z,101379.66
2022-12-24T20:16:35.542Z,101381.38
2022-12-24T20:19:06.593Z,101383.97
2022-12-24T20:21:35.260Z,101377.78
2022-12-24T20:24:02.919Z,101388.19
2022-12-24T20:26:31.094Z,101394.22
2022-12-24T20:29:02.229Z,101389.81
2022-12-24T20:31:30.540Z,101388.88
2022-12-24T20:34:01.334Z,101392.31
2022-12-24T20:36:31.304Z,101396.59
2022-12-24T20:38:59.852Z,101411.38
2022-12-24T20:41:30.195Z,101405.25
2022-12-24T20:43:59.477Z,101414.78
2022-12-24T20:46:28.786Z,101413.03
2022-12-24T20:48:57.725Z,101406.88
2022-12-24T20:51:27.693Z,101400.75
2022-12-24T20:54:00.771Z,101395.44
2022-12-24T20:56:30.999Z,101384.09
2022-12-24T20:59:00.281Z,101387.56
2022-12-24T21:01:28.883Z,101391.06
2022-12-24T21:04:04.994Z,101385.78
2022-12-24T21:06:34.820Z,101370.94
2022-12-24T21:09:03.654Z,101365.69
2022-12-24T21:11:50.002Z,101376.19
2022-12-24T21:14:25.640Z,101369.16
2022-12-24T21:16:54.976Z,101377.03
2022-12-24T21:19:25.598Z,101368.31
2022-12-24T21:21:53.312Z,101376.16
2022-12-24T21:24:20.943Z,101363.91
2022-12-24T21:26:48.435Z,101370.00
2022-12-24T21:29:15.879Z,101369.09
2022-12-24T21:31:43.993Z,101371.72
2022-12-24T21:34:11.477Z,101353.34
2022-12-24T21:36:39.119Z,101353.34
2022-12-24T21:39:06.622Z,101355.97
2022-12-24T21:41:34.110Z,101354.22
2022-12-24T21:44:02.178Z,101348.09
2022-12-24T21:46:29.961Z,101337.59
2022-12-24T21:49:16.543Z,101324.50
2022-12-24T21:51:46.613Z,101312.25
2022-12-24T21:54:24.073Z,101313.16
2022-12-24T21:57:13.448Z,101326.25
2022-12-24T21:59:41.024Z,101327.13
2022-12-24T22:02:15.823Z,101333.22
2022-12-24T22:04:44.217Z,101326.28
2022-12-24T22:07:43.789Z,101315.78
2022-12-24T22:10:32.555Z,101320.19
2022-12-24T22:13:03.532Z,101317.56
2022-12-24T22:15:31.064Z,101328.06
2022-12-24T22:17:58.493Z,101334.19
2022-12-24T22:20:26.158Z,101336.81
2022-12-24T22:22:53.829Z,101339.47
2022-12-24T22:25:21.325Z,101337.72
2022-12-24T22:27:48.764Z,101335.13
2022-12-24T22:30:16.331Z,101326.41
2022-12-24T22:32:43.772Z,101329.06
2022-12-24T22:35:11.446Z,101323.81
2022-12-24T22:37:39.162Z,101326.50
2022-12-24T22:40:08.005Z,101331.72
2022-12-24T22:42:35.784Z,101334.38
2022-12-24T22:45:04.703Z,101326.50
2022-12-24T22:47:32.847Z,101330.91
2022-12-24T22:50:00.424Z,101319.56
2022-12-24T22:52:28.003Z,101322.22
2022-12-24T22:54:55.495Z,101327.47
2022-12-24T22:57:22.930Z,101328.31
2022-12-24T22:59:50.451Z,101326.59
2022-12-24T23:02:23.975Z,101322.28
2022-12-24T23:04:55.170Z,101320.53
2022-12-24T23:07:22.710Z,101327.53
2022-12-24T23:09:50.174Z,101325.81
2022-12-24T23:12:37.606Z,101327.56
2022-12-24T23:15:05.955Z,101318.88
2022-12-24T23:17:33.439Z,101325.84
2022-12-24T23:20:02.724Z,101338.06
2022-12-24T23:22:31.242Z,101343.31
2022-12-24T23:24:58.760Z,101345.06
2022-12-24T23:27:26.233Z,101356.41
2022-12-24T23:29:53.691Z,101360.75
2022-12-24T23:32:21.570Z,101362.50
2022-12-24T23:34:49.070Z,101371.22
2022-12-24T23:37:16.588Z,101364.22
2022-12-24T23:39:44.628Z,101361.59
2022-12-24T23:42:12.036Z,101371.16
2022-12-24T23:44:39.574Z,101365.91
2022-12-24T23:47:07.183Z,101365.00
2022-12-24T23:49:34.605Z,101358.03
2022-12-24T23:52:02.290Z,101361.50
2022-12-24T23:54:29.886Z,101351.91
2022-12-24T23:56:57.408Z,101348.38
2022-12-24T23:59:24.858Z,101345.75
